Turks and Caicos Islands Weather

[source: ADDS]
METAR
MBPV 022230Z 0300/0400 12015KT 9999 SCT015 SCT060 MBGT 022230Z 0300/0400 12015KT 9999 SCT015 SCT060 TAF
MBPV 022230Z 0300/0400 12015KT 9999 SCT015 SCT060 =
MBGT 022230Z 0300/0400 12015KT 9999 SCT015 SCT060 =
SR / SS: 10:32 / 23:04 UTC (MBPV 2014-09-02)
E-mail Print PDF
Weather